Time;durP1;ratioP1;P1;durP2;ratioP2;P2;SDS_P1;SDS_P2;PMS_P1;PMS_P2;Temp;Humidity;BMP_temperature;BMP_pressure;BME280_temperature;BME280_humidity;BME280_pressure;Samples;Min_cycle;Max_cycle;Signal;HPM_P1;HPM_P2
2023/04/24 00:01:43;;;;;;;;;0.50;0.50;;;;;21.87;40.14;100066.22;5076009;27;61329;-67
2023/04/24 00:04:10;;;;;;;;;2.75;1.50;;;;;21.88;39.84;100059.88;5076858;27;45445;-67
2023/04/24 00:06:36;;;;;;;;;2.00;1.00;;;;;21.86;39.93;100061.84;5055431;27;46062;-67
2023/04/24 00:09:03;;;;;;;;;2.25;0.75;;;;;21.87;39.89;100066.22;5051927;28;45451;-67
2023/04/24 00:11:29;;;;;;;;;1.00;1.00;;;;;21.86;39.94;100069.00;5052023;28;45486;-67
2023/04/24 00:13:55;;;;;;;;;0.25;0.25;;;;;21.84;40.09;100073.63;5076108;27;45608;-67
2023/04/24 00:16:20;;;;;;;;;1.00;1.00;;;;;21.85;40.28;100077.94;5079042;27;45408;-66
2023/04/24 00:18:47;;;;;;;;;1.00;1.00;;;;;21.85;39.87;100081.47;5074123;28;63127;-66
2023/04/24 00:21:13;;;;;;;;;1.25;0.25;;;;;21.85;40.34;100084.16;5071242;28;45323;-67
2023/04/24 00:23:38;;;;;;;;;2.00;0.25;;;;;21.84;39.89;100079.78;5075062;28;45319;-67
2023/04/24 00:26:03;;;;;;;;;0.50;0.50;;;;;21.83;39.68;100083.41;5086632;27;73904;-67
2023/04/24 00:28:29;;;;;;;;;1.00;1.00;;;;;21.83;39.80;100087.91;5077903;27;51961;-67
2023/04/24 00:30:54;;;;;;;;;1.00;1.00;;;;;21.83;40.19;100094.06;5080813;27;45522;-67
2023/04/24 00:33:20;;;;;;;;;2.00;2.00;;;;;21.83;39.78;100093.22;5077305;27;53672;-67
2023/04/24 00:35:45;;;;;;;;;1.00;1.00;;;;;21.80;40.17;100084.53;5067900;27;47346;-67
2023/04/24 00:38:11;;;;;;;;;1.00;1.00;;;;;21.79;39.77;100089.97;5084184;27;68011;-67
2023/04/24 00:40:36;;;;;;;;;1.00;1.00;;;;;21.82;39.66;100102.22;5080015;27;45694;-67
2023/04/24 00:43:01;;;;;;;;;0.75;0.75;;;;;21.78;39.52;100102.47;5079274;27;59127;-67
2023/04/24 00:45:27;;;;;;;;;0.25;0.25;;;;;21.80;39.55;100110.31;5062306;28;47210;-68
2023/04/24 00:47:53;;;;;;;;;2.00;2.00;;;;;21.79;40.11;100111.28;5080917;28;45450;-67
2023/04/24 00:50:19;;;;;;;;;2.00;2.00;;;;;21.79;39.83;100109.47;5078936;27;45345;-67
2023/04/24 00:52:44;;;;;;;;;0.50;0.25;;;;;21.78;39.84;100112.28;5079887;27;45736;-67
2023/04/24 00:55:10;;;;;;;;;1.50;1.25;;;;;21.76;39.71;100109.75;5079874;27;45418;-67
2023/04/24 00:57:35;;;;;;;;;1.50;1.00;;;;;21.77;39.39;100116.75;5079726;27;45526;-67
2023/04/24 01:00:01;;;;;;;;;2.00;1.25;;;;;21.76;39.44;100114.19;5080277;27;45373;-67
2023/04/24 01:02:26;;;;;;;;;1.00;1.00;;;;;21.76;39.69;100117.72;5077375;27;45494;-67
2023/04/24 01:04:52;;;;;;;;;0.50;0.50;;;;;21.75;39.69;100123.19;5060962;28;45465;-67
2023/04/24 01:07:20;;;;;;;;;2.00;1.00;;;;;21.77;40.04;100123.91;5076066;28;64657;-67
2023/04/24 01:09:48;;;;;;;;;2.00;1.00;;;;;21.76;39.77;100117.72;5081076;27;45644;-67
2023/04/24 01:12:14;;;;;;;;;2.00;1.00;;;;;21.76;39.37;100114.19;5075610;28;45426;-67
2023/04/24 01:14:40;;;;;;;;;0.25;0.25;;;;;21.73;39.92;100117.97;5079532;27;46630;-67
2023/04/24 01:17:05;;;;;;;;;1.00;1.00;;;;;21.73;39.49;100120.66;5079214;27;47372;-67
2023/04/24 01:19:31;;;;;;;;;2.50;1.00;;;;;21.74;39.94;100121.47;5059521;28;45557;-67
2023/04/24 01:21:58;;;;;;;;;2.25;1.00;;;;;21.73;39.49;100111.81;5077983;28;45468;-67
2023/04/24 01:24:23;;;;;;;;;1.00;1.00;;;;;21.73;39.35;100114.47;5076929;27;45543;-67
2023/04/24 01:26:49;;;;;;;;;0.25;0.25;;;;;21.72;39.45;100108.28;5076768;28;72255;-67
2023/04/24 01:29:15;;;;;;;;;1.00;1.00;;;;;21.71;39.38;100113.75;5074455;28;45366;-67
2023/04/24 01:31:40;;;;;;;;;1.00;1.00;;;;;21.70;39.41;100115.56;5061682;28;45337;-68
2023/04/24 01:34:06;;;;;;;;;1.00;0.25;;;;;21.72;39.49;100112.78;5082522;27;52218;-68
2023/04/24 01:36:33;;;;;;;;;1.50;1.00;;;;;21.71;39.44;100116.41;5078593;27;45312;-68
2023/04/24 01:38:58;;;;;;;;;0.25;0.25;;;;;21.71;39.58;100129.72;5078104;27;45359;-67
2023/04/24 01:41:23;;;;;;;;;1.00;1.00;;;;;21.70;39.24;100125.38;5079622;27;45828;-68
2023/04/24 01:43:49;;;;;;;;;1.00;0.25;;;;;21.71;39.27;100129.72;5077148;27;45564;-68
2023/04/24 01:46:15;;;;;;;;;1.00;1.00;;;;;21.65;39.47;100120.44;5058199;28;45684;-67
2023/04/24 01:48:41;;;;;;;;;1.50;1.50;;;;;21.70;39.34;100136.03;5073156;27;54020;-67
2023/04/24 01:51:06;;;;;;;;;1.00;1.00;;;;;21.69;39.30;100135.19;5079337;27;45228;-67
2023/04/24 01:53:31;;;;;;;;;2.00;1.00;;;;;21.69;39.27;100131.66;5074116;27;62622;-67
2023/04/24 01:55:57;;;;;;;;;0.25;0.25;;;;;21.68;39.35;100143.31;5073432;28;45473;-68
2023/04/24 01:58:22;;;;;;;;;1.00;1.00;;;;;21.67;39.10;100138.94;5077226;27;62178;-68
2023/04/24 02:00:47;;;;;;;;;1.00;1.00;;;;;21.68;39.66;100143.31;5078772;27;61681;-68
2023/04/24 02:03:13;;;;;;;;;0.50;0.50;;;;;21.67;39.42;100146.94;5073810;27;69837;-67
2023/04/24 02:05:38;;;;;;;;;1.00;1.00;;;;;21.65;39.68;100141.72;5078999;28;45268;-68
2023/04/24 02:08:03;;;;;;;;;1.00;1.00;;;;;21.66;39.57;100148.75;5075831;27;61919;-67
2023/04/24 02:10:29;;;;;;;;;1.00;1.00;;;;;21.64;39.16;100147.19;5078043;28;47903;-67
2023/04/24 02:12:54;;;;;;;;;1.00;1.00;;;;;21.66;39.16;100142.59;5076650;28;46129;-67
2023/04/24 02:15:19;;;;;;;;;1.00;1.00;;;;;21.64;39.20;100147.19;5077388;27;71809;-68
2023/04/24 02:17:45;;;;;;;;;0.00;0.00;;;;;21.65;39.36;100151.56;5072730;27;69231;-67
2023/04/24 02:20:10;;;;;;;;;1.00;1.00;;;;;21.64;39.14;100153.38;5076349;27;67745;-68
2023/04/24 02:22:36;;;;;;;;;2.00;0.75;;;;;21.65;39.21;100163.03;5077711;27;45701;-68
2023/04/24 02:25:01;;;;;;;;;1.00;1.00;;;;;21.64;39.04;100168.47;5076427;27;45335;-68
2023/04/24 02:27:26;;;;;;;;;2.00;1.00;;;;;21.64;38.97;100157.84;5077742;28;45371;-67
2023/04/24 02:29:52;;;;;;;;;1.00;1.00;;;;;21.63;39.49;100166.81;5077941;27;45405;-68
2023/04/24 02:32:17;;;;;;;;;1.00;1.00;;;;;21.64;39.45;100173.81;5076783;27;64987;-67
2023/04/24 02:34:43;;;;;;;;;0.75;0.25;;;;;21.60;39.37;100168.75;5078903;27;69760;-67
2023/04/24 02:37:08;;;;;;;;;0.75;0.00;;;;;21.61;39.65;100174.94;5060780;28;47249;-67
2023/04/24 02:39:33;;;;;;;;;0.00;0.00;;;;;21.60;39.42;100174.09;5075328;28;60952;-67
2023/04/24 02:41:59;;;;;;;;;0.75;0.75;;;;;21.60;38.96;100176.75;5077569;27;73674;-68
2023/04/24 02:44:24;;;;;;;;;1.00;1.00;;;;;21.59;39.41;100177.72;5075387;27;45262;-67
2023/04/24 02:46:49;;;;;;;;;1.75;1.25;;;;;21.62;38.94;100179.28;5081002;27;67181;-67
2023/04/24 02:49:15;;;;;;;;;0.00;0.00;;;;;21.60;39.23;100178.53;5079562;27;45387;-67
2023/04/24 02:51:41;;;;;;;;;1.00;1.00;;;;;21.61;39.44;100173.09;5077891;27;46060;-67
2023/04/24 02:54:08;;;;;;;;;2.50;1.00;;;;;21.61;38.75;100180.25;5080197;28;45422;-68
2023/04/24 02:56:33;;;;;;;;;0.50;0.50;;;;;21.60;39.26;100176.75;5076434;27;45440;-68
2023/04/24 02:58:59;;;;;;;;;1.00;1.00;;;;;21.60;39.35;100175.88;5078158;28;45573;-68
2023/04/24 03:01:24;;;;;;;;;1.00;1.00;;;;;21.58;39.15;100183.16;5078577;28;45407;-68
2023/04/24 03:03:50;;;;;;;;;0.75;0.75;;;;;21.57;38.96;100178.81;5076612;28;45378;-68
2023/04/24 03:06:15;;;;;;;;;1.00;1.00;;;;;21.54;39.21;100181.72;5077897;28;61499;-68
2023/04/24 03:08:41;;;;;;;;;0.00;0.00;;;;;21.57;38.87;100190.31;5078745;27;45436;-68
2023/04/24 03:11:06;;;;;;;;;0.00;0.00;;;;;21.57;38.57;100192.97;5078077;27;69094;-67
2023/04/24 03:13:31;;;;;;;;;1.00;1.00;;;;;21.57;39.32;100195.63;5078304;27;62728;-67
2023/04/24 03:15:57;;;;;;;;;1.00;1.00;;;;;21.57;39.05;100194.78;5062360;28;54729;-67
2023/04/24 03:18:22;;;;;;;;;0.50;0.00;;;;;21.56;39.35;100195.75;5078772;27;54091;-67
2023/04/24 03:20:47;;;;;;;;;0.00;0.00;;;;;21.55;38.92;100199.41;5082263;27;74256;-67
2023/04/24 03:23:13;;;;;;;;;0.00;0.00;;;;;21.51;39.35;100201.44;5074950;27;45998;-67
2023/04/24 03:25:38;;;;;;;;;2.50;0.50;;;;;21.55;39.12;100210.06;5076549;27;45407;-67
2023/04/24 03:28:04;;;;;;;;;1.00;1.00;;;;;21.56;39.19;100203.75;5077901;27;45800;-67
2023/04/24 03:30:30;;;;;;;;;0.00;0.00;;;;;21.53;38.80;100196.88;5076306;28;47149;-68
2023/04/24 03:32:55;;;;;;;;;1.25;0.00;;;;;21.54;38.96;100203.88;5076236;27;45395;-68
2023/04/24 03:35:21;;;;;;;;;0.50;0.50;;;;;21.56;38.72;100207.25;5077770;28;45401;-67
2023/04/24 03:37:47;;;;;;;;;1.00;0.00;;;;;21.53;38.99;100199.53;5077705;27;45391;-67
2023/04/24 03:40:12;;;;;;;;;0.50;0.50;;;;;21.55;38.97;100200.25;5078662;28;46224;-67
2023/04/24 03:42:37;;;;;;;;;0.50;0.50;;;;;21.53;39.27;100199.53;5075689;27;45466;-68
2023/04/24 03:45:03;;;;;;;;;0.00;0.00;;;;;21.54;38.51;100205.69;5077912;27;65570;-67
2023/04/24 03:47:28;;;;;;;;;0.00;0.00;;;;;21.54;39.23;100211.00;5075714;28;45552;-67
2023/04/24 03:49:55;;;;;;;;;1.00;1.00;;;;;21.54;39.15;100219.84;5073818;27;66414;-67
2023/04/24 03:52:21;;;;;;;;;0.25;0.00;;;;;21.52;39.16;100212.97;5074745;27;45804;-67
2023/04/24 03:54:46;;;;;;;;;0.50;0.50;;;;;21.54;38.63;100216.34;5074371;28;45480;-67
2023/04/24 03:57:11;;;;;;;;;0.50;0.50;;;;;21.50;38.74;100213.09;5074885;27;45377;-67
2023/04/24 03:59:37;;;;;;;;;0.00;0.00;;;;;21.50;38.63;100212.25;5074167;27;46190;-67
2023/04/24 04:02:02;;;;;;;;;0.00;0.00;;;;;21.52;38.96;100220.94;5086013;27;45394;-67
2023/04/24 04:04:27;;;;;;;;;0.25;0.25;;;;;21.51;39.19;100225.41;5075252;27;61743;-68
2023/04/24 04:06:53;;;;;;;;;2.00;1.00;;;;;21.50;39.13;100221.06;5073866;28;70985;-68
2023/04/24 04:09:18;;;;;;;;;0.25;0.25;;;;;21.49;38.95;100232.69;5079343;27;47709;-68
2023/04/24 04:11:44;;;;;;;;;2.00;0.00;;;;;21.47;38.62;100234.63;5072093;27;72257;-67
2023/04/24 04:14:09;;;;;;;;;1.00;1.00;;;;;21.50;38.56;100245.03;5080079;27;45440;-67
2023/04/24 04:16:36;;;;;;;;;0.00;0.00;;;;;21.49;38.98;100243.31;5075749;28;63843;-67
2023/04/24 04:19:02;;;;;;;;;0.25;0.00;;;;;21.51;38.60;100240.53;5058075;28;47070;-66
2023/04/24 04:21:28;;;;;;;;;1.00;1.00;;;;;21.48;38.90;100241.66;5078058;27;45261;-67
2023/04/24 04:23:53;;;;;;;;;2.50;1.00;;;;;21.49;38.53;100250.47;5075944;27;46937;-68
2023/04/24 04:26:19;;;;;;;;;0.25;0.25;;;;;21.50;38.95;100257.50;5077751;28;45533;-67
2023/04/24 04:28:44;;;;;;;;;0.00;0.00;;;;;21.48;38.67;100254.09;5074728;27;48353;-68
2023/04/24 04:31:10;;;;;;;;;0.75;0.75;;;;;21.48;39.07;100257.63;5079056;27;45538;-67
2023/04/24 04:33:36;;;;;;;;;1.00;1.00;;;;;21.48;38.68;100265.59;5079878;27;58548;-67
2023/04/24 04:36:03;;;;;;;;;0.00;0.00;;;;;21.48;38.31;100268.28;5084115;27;45718;-67
2023/04/24 04:38:29;;;;;;;;;0.75;0.50;;;;;21.48;38.63;100267.41;5072954;27;45568;-68
2023/04/24 04:40:56;;;;;;;;;0.00;0.00;;;;;21.47;38.94;100269.22;5075472;27;45502;-67
2023/04/24 04:43:22;;;;;;;;;1.00;1.00;;;;;21.47;38.55;100266.56;5074646;27;45397;-67
2023/04/24 04:45:48;;;;;;;;;0.00;0.00;;;;;21.45;39.08;100267.63;5077529;28;45513;-67
2023/04/24 04:48:14;;;;;;;;;0.50;0.50;;;;;21.47;38.54;100274.56;5071754;27;69141;-68
2023/04/24 04:50:39;;;;;;;;;0.00;0.00;;;;;21.47;38.85;100277.22;5080214;27;45646;-68
2023/04/24 04:53:05;;;;;;;;;1.00;0.00;;;;;21.46;38.57;100277.34;5075134;27;65091;-68
2023/04/24 04:55:30;;;;;;;;;2.00;1.00;;;;;21.46;39.11;100280.00;5077897;27;46441;-68
2023/04/24 04:57:57;;;;;;;;;2.00;1.00;;;;;21.47;38.97;100285.19;5071652;27;70480;-68
2023/04/24 05:00:25;;;;;;;;;2.50;1.00;;;;;21.48;38.86;100284.25;5078687;27;46260;-68
2023/04/24 05:02:50;;;;;;;;;0.75;0.00;;;;;21.42;38.51;100280.22;5072430;28;45321;-68
2023/04/24 05:05:17;;;;;;;;;0.00;0.00;;;;;21.45;38.85;100280.94;5077762;28;45534;-68
2023/04/24 05:07:42;;;;;;;;;4.00;1.00;;;;;21.44;38.56;100285.41;5056652;28;48218;-67
2023/04/24 05:10:08;;;;;;;;;3.50;0.50;;;;;21.47;39.03;100303.00;5081098;27;45385;-68
2023/04/24 05:12:33;;;;;;;;;0.00;0.00;;;;;21.46;38.56;100309.28;5077452;27;45613;-68
2023/04/24 05:14:59;;;;;;;;;0.00;0.00;;;;;21.46;38.95;100311.94;5082246;27;66463;-67
2023/04/24 05:17:25;;;;;;;;;0.00;0.00;;;;;21.46;38.48;100311.94;5082660;27;47474;-67
2023/04/24 05:19:51;;;;;;;;;0.00;0.00;;;;;21.44;38.79;100317.34;5079883;27;45677;-67
2023/04/24 05:22:18;;;;;;;;;1.00;1.00;;;;;21.43;39.18;100331.66;5076377;28;45329;-67
2023/04/24 05:24:43;;;;;;;;;1.75;1.00;;;;;21.44;38.80;100341.31;5083797;27;45828;-68
2023/04/24 05:27:08;;;;;;;;;1.00;1.00;;;;;21.42;38.50;100343.25;5075914;27;60843;-69
2023/04/24 05:29:34;;;;;;;;;1.00;1.00;;;;;21.41;39.18;100337.09;5078361;27;53259;-71
2023/04/24 05:32:00;;;;;;;;;1.00;1.00;;;;;21.43;39.02;100358.28;5076956;27;45409;-66
2023/04/24 05:34:25;;;;;;;;;3.00;2.00;;;;;21.42;38.75;100354.78;5081212;27;45270;-67
2023/04/24 05:36:51;;;;;;;;;3.75;2.00;;;;;21.37;39.10;100348.09;5080451;27;45347;-66
2023/04/24 05:39:16;;;;;;;;;2.00;2.00;;;;;21.33;38.61;100350.16;5075729;27;47417;-67
2023/04/24 05:41:42;;;;;;;;;2.25;2.25;;;;;21.35;38.61;100360.69;5078060;27;64808;-66
2023/04/24 05:44:07;;;;;;;;;3.00;3.00;;;;;21.31;38.72;100357.41;5079320;27;45587;-66
2023/04/24 05:46:33;;;;;;;;;2.00;2.00;;;;;21.30;38.95;100366.38;5078359;27;72517;-66
2023/04/24 05:48:58;;;;;;;;;2.00;2.00;;;;;21.28;38.89;100365.63;5075877;27;51439;-67
2023/04/24 05:51:24;;;;;;;;;3.50;3.50;;;;;21.28;38.73;100367.44;5081206;27;45362;-65
2023/04/24 05:53:49;;;;;;;;;4.00;2.00;;;;;21.30;38.40;100384.13;5077857;28;45592;-72
2023/04/24 05:56:15;;;;;;;;;4.00;2.50;;;;;21.29;38.66;100379.81;5062065;27;47213;-72
2023/04/24 05:58:40;;;;;;;;;6.00;3.00;;;;;21.26;38.72;100386.19;5080110;27;45368;-73
2023/04/24 06:01:06;;;;;;;;;6.50;3.00;;;;;21.23;38.27;100384.63;5090805;27;45737;-70
2023/04/24 06:03:31;;;;;;;;;5.00;4.00;;;;;21.24;38.44;100388.13;5079838;27;67724;-70
2023/04/24 06:05:56;;;;;;;;;2.00;2.00;;;;;21.22;38.71;100400.72;5079939;27;53709;-69
2023/04/24 06:08:22;;;;;;;;;5.00;3.00;;;;;21.19;38.69;100398.28;5080980;27;54326;-68
2023/04/24 06:10:47;;;;;;;;;2.00;2.00;;;;;21.17;38.28;100398.41;5059581;28;65441;-70
2023/04/24 06:13:12;;;;;;;;;2.50;2.50;;;;;21.16;38.62;100415.34;5060283;27;45516;-73
2023/04/24 06:15:38;;;;;;;;;2.00;1.50;;;;;21.14;38.66;100417.28;5077931;27;45446;-74
2023/04/24 06:18:03;;;;;;;;;5.50;4.00;;;;;21.11;39.18;100417.50;5076489;27;66988;-74
2023/04/24 06:20:29;;;;;;;;;4.75;2.25;;;;;21.13;38.84;100425.38;5079326;27;45537;-78
2023/04/24 06:22:54;;;;;;;;;4.50;4.00;;;;;21.14;39.62;100424.41;5078251;27;45446;-75
2023/04/24 06:25:20;;;;;;;;;3.75;3.75;;;;;21.15;39.64;100420.78;5083939;27;45497;-74
2023/04/24 06:27:45;;;;;;;;;4.50;3.00;;;;;21.18;39.81;100420.56;5076893;27;45480;-74
2023/04/24 06:30:11;;;;;;;;;5.00;3.00;;;;;21.19;40.43;100431.06;5078005;28;45979;-74
2023/04/24 06:32:36;;;;;;;;;5.00;3.00;;;;;21.17;40.80;100426.84;5076445;28;45714;-73
2023/04/24 06:35:02;;;;;;;;;4.75;2.75;;;;;21.21;41.04;100433.59;5075279;27;68124;-69
2023/04/24 06:37:27;;;;;;;;;2.75;2.75;;;;;21.26;41.61;100433.25;5087643;27;45536;-70
2023/04/24 06:39:52;;;;;;;;;3.50;2.75;;;;;21.28;42.18;100442.81;5060295;28;48652;-73
2023/04/24 06:42:20;;;;;;;;;3.00;1.75;;;;;21.31;42.54;100441.75;5082366;27;69598;-74
2023/04/24 06:44:46;;;;;;;;;2.00;2.00;;;;;21.35;42.45;100448.53;5080266;27;46949;-72
2023/04/24 06:47:13;;;;;;;;;4.25;2.00;;;;;21.35;42.05;100446.69;5085717;27;45468;-70
2023/04/24 06:49:38;;;;;;;;;4.75;1.75;;;;;21.40;42.35;100449.00;5074410;28;45420;-70
2023/04/24 06:52:04;;;;;;;;;3.75;3.00;;;;;21.44;42.76;100453.13;5086365;27;45283;-68
2023/04/24 06:54:31;;;;;;;;;1.00;1.00;;;;;21.46;42.72;100456.59;5069651;28;45416;-68
2023/04/24 06:56:57;;;;;;;;;2.00;1.75;;;;;21.51;42.55;100466.84;5074414;27;64936;-66
2023/04/24 06:59:23;;;;;;;;;3.75;1.50;;;;;21.51;42.54;100451.72;5072356;27;45387;-80
2023/04/24 07:01:49;;;;;;;;;1.00;1.00;;;;;21.56;42.19;100464.69;5076030;27;45381;-79
2023/04/24 07:04:14;;;;;;;;;1.50;1.50;;;;;21.57;42.62;100456.59;5076341;28;45577;-76
2023/04/24 07:06:40;;;;;;;;;1.00;1.00;;;;;21.60;42.66;100450.16;5086185;27;45439;-66
2023/04/24 07:09:05;;;;;;;;;2.00;2.00;;;;;21.63;42.10;100455.25;5080437;27;45661;-74
2023/04/24 07:11:31;;;;;;;;;2.50;2.00;;;;;21.66;42.02;100457.69;5062054;27;45350;-74
2023/04/24 07:13:56;;;;;;;;;3.75;1.50;;;;;21.68;42.06;100457.56;5076706;27;45491;-73
2023/04/24 07:16:22;;;;;;;;;4.00;3.00;;;;;21.67;42.25;100454.03;5076383;27;45492;-66
2023/04/24 07:18:47;;;;;;;;;3.75;2.00;;;;;21.72;42.14;100459.00;5073989;28;45490;-67
2023/04/24 07:21:13;;;;;;;;;3.25;1.75;;;;;21.76;42.02;100457.78;5073514;28;45456;-67
2023/04/24 07:23:38;;;;;;;;;1.75;1.75;;;;;21.75;41.87;100464.09;5054896;28;52836;-67
2023/04/24 07:26:04;;;;;;;;;4.00;2.00;;;;;21.79;41.92;100469.06;5075553;27;64061;-64
2023/04/24 07:28:32;;;;;;;;;2.25;2.00;;;;;21.79;42.35;100458.41;5055662;28;45576;-68
2023/04/24 07:30:59;;;;;;;;;4.25;2.25;;;;;21.82;42.28;100456.50;5058385;28;45595;-63
2023/04/24 07:33:25;;;;;;;;;1.75;1.75;;;;;21.85;41.65;100470.41;5057778;27;46792;-69
2023/04/24 07:35:50;;;;;;;;;1.50;1.25;;;;;21.83;41.55;100456.34;5080945;27;45604;-67
2023/04/24 07:38:16;;;;;;;;;2.75;2.75;;;;;21.88;41.57;100470.16;5072505;28;67897;-71
2023/04/24 07:40:41;;;;;;;;;1.25;1.25;;;;;21.90;41.92;100470.03;5074895;27;45846;-68
2023/04/24 07:43:06;;;;;;;;;4.00;1.25;;;;;21.89;41.47;100471.84;5071375;28;48129;-65
2023/04/24 07:45:35;;;;;;;;;3.00;2.25;;;;;21.90;41.71;100476.22;5078219;27;71623;-65
2023/04/24 07:48:01;;;;;;;;;4.75;2.75;;;;;21.90;41.78;100478.91;5075880;28;45317;-68
2023/04/24 07:50:26;;;;;;;;;1.25;1.25;;;;;21.94;41.92;100476.84;5078413;27;45318;-67
2023/04/24 07:52:51;;;;;;;;;1.00;1.00;;;;;21.94;41.52;100476.84;5073984;27;59672;-65
2023/04/24 07:55:17;;;;;;;;;4.00;2.25;;;;;21.96;41.65;100482.88;5075852;27;62838;-63
2023/04/24 07:57:42;;;;;;;;;3.50;2.00;;;;;21.97;41.72;100479.22;5078508;27;48895;-63
2023/04/24 08:00:08;;;;;;;;;2.75;2.00;;;;;21.98;41.86;100480.94;5076262;27;54065;-66
2023/04/24 08:02:33;;;;;;;;;1.50;1.25;;;;;21.97;41.58;100485.44;5078070;27;46285;-69
2023/04/24 08:04:58;;;;;;;;;1.00;1.00;;;;;22.00;41.91;100493.16;5070242;27;62546;-66
2023/04/24 08:07:24;;;;;;;;;4.25;1.25;;;;;22.03;41.69;100491.22;5076599;27;53088;-64
2023/04/24 08:09:49;;;;;;;;;1.50;1.25;;;;;22.04;41.97;100491.09;5071787;27;45590;-64
2023/04/24 08:12:15;;;;;;;;;6.25;2.00;;;;;22.08;41.81;100491.69;5075376;27;74245;-64
2023/04/24 08:14:40;;;;;;;;;1.75;1.75;;;;;22.12;41.22;100495.84;5082515;27;68146;-62
2023/04/24 08:17:05;;;;;;;;;4.00;3.00;;;;;22.15;41.75;100501.78;5076955;27;67514;-63
2023/04/24 08:19:31;;;;;;;;;1.75;1.75;;;;;22.18;41.52;100506.84;5076110;27;45593;-64
2023/04/24 08:21:56;;;;;;;;;2.50;2.50;;;;;22.23;41.43;100500.31;5076070;27;46046;-65
2023/04/24 08:24:22;;;;;;;;;5.25;4.00;;;;;22.25;41.32;100499.22;5069029;27;64035;-66
2023/04/24 08:26:50;;;;;;;;;3.75;3.00;;;;;22.32;41.11;100508.44;5075525;27;45556;-64
2023/04/24 08:29:15;;;;;;;;;2.00;2.00;;;;;22.37;40.96;100506.25;5082986;27;45975;-65
2023/04/24 08:31:41;;;;;;;;;3.75;2.00;;;;;22.41;41.05;100504.19;5074335;28;45609;-65
2023/04/24 08:34:06;;;;;;;;;3.00;1.25;;;;;22.46;40.98;100501.16;5074921;27;45272;-63
2023/04/24 08:36:31;;;;;;;;;3.00;3.00;;;;;22.51;40.86;100505.16;5077598;27;65324;-68
2023/04/24 08:38:57;;;;;;;;;2.75;2.75;;;;;22.55;40.43;100508.41;5067246;27;45685;-67
2023/04/24 08:41:25;;;;;;;;;4.00;2.75;;;;;22.59;40.66;100507.19;5076248;28;45513;-66
2023/04/24 08:43:51;;;;;;;;;3.50;3.25;;;;;22.63;40.49;100516.66;5077899;27;45880;-62
2023/04/24 08:46:18;;;;;;;;;2.25;0.75;;;;;22.65;40.16;100522.69;5078557;27;45499;-67
2023/04/24 08:48:43;;;;;;;;;3.00;3.00;;;;;22.70;40.21;100525.84;5081638;27;45547;-64
2023/04/24 08:51:09;;;;;;;;;2.00;2.00;;;;;22.76;40.00;100524.50;5053469;28;66943;-64
2023/04/24 08:53:35;;;;;;;;;2.25;1.25;;;;;22.78;40.01;100524.38;5077928;27;45193;-68
2023/04/24 08:56:01;;;;;;;;;1.75;1.75;;;;;22.80;39.83;100519.75;5086220;27;45371;-68
2023/04/24 08:58:27;;;;;;;;;3.25;2.25;;;;;22.85;39.82;100522.88;5081444;27;45483;-67
2023/04/24 09:00:55;;;;;;;;;6.25;4.00;;;;;22.85;39.79;100521.06;5079487;27;48487;-66
2023/04/24 09:03:21;;;;;;;;;1.50;1.50;;;;;22.87;39.87;100512.94;5075241;27;45511;-67
2023/04/24 09:05:49;;;;;;;;;4.00;2.75;;;;;22.87;39.64;100510.28;5079276;27;45912;-69
2023/04/24 09:08:16;;;;;;;;;2.25;2.25;;;;;22.91;39.82;100517.91;5080227;27;45505;-69
2023/04/24 09:10:41;;;;;;;;;4.00;2.50;;;;;22.91;39.47;100514.38;5081038;28;46455;-67
2023/04/24 09:13:09;;;;;;;;;3.00;3.00;;;;;22.96;39.68;100522.00;5076627;27;45229;-65
2023/04/24 09:15:34;;;;;;;;;3.50;3.25;;;;;22.98;39.36;100528.06;5056747;27;45610;-69
2023/04/24 09:18:00;;;;;;;;;3.00;3.00;;;;;23.00;39.69;100524.31;5080715;27;45673;-69
2023/04/24 09:20:25;;;;;;;;;4.00;3.25;;;;;23.01;39.62;100528.66;5080546;27;45296;-65
2023/04/24 09:22:53;;;;;;;;;2.75;1.75;;;;;;;;5077381;27;45712;-72
2023/04/24 09:25:19;;;;;;;;;3.75;2.00;;;;;;;;5080782;27;45578;-63
2023/04/24 09:27:45;;;;;;;;;3.00;1.33;;;;;23.05;39.49;100534.63;5083649;27;45277;-65
2023/04/24 09:30:10;;;;;;;;;3.00;3.00;;;;;23.07;39.76;100538.00;5059175;28;46769;-69
2023/04/24 09:32:36;;;;;;;;;5.50;3.25;;;;;23.10;39.47;100545.75;5080226;27;45589;-67
2023/04/24 09:35:09;;;;;;;;;3.25;1.25;;;;;23.10;39.62;100543.09;5065072;27;45273;-67
2023/04/24 09:37:37;;;;;;;;;3.00;2.75;;;;;23.13;39.52;100549.03;5080843;27;45338;-66
2023/04/24 09:40:16;;;;;;;;;1.25;1.25;;;;;23.16;39.64;100547.94;5077691;27;46939;-66
2023/04/24 09:42:56;;;;;;;;;3.00;2.00;;;;;23.19;39.36;100555.66;5076194;27;46227;-64
2023/04/24 09:45:22;;;;;;;;;2.00;2.00;;;;;23.21;39.00;100560.88;5081045;27;45281;-61
2023/04/24 09:47:53;;;;;;;;;4.00;4.00;;;;;23.20;39.18;100557.38;5087125;27;45393;-63
2023/04/24 09:50:18;;;;;;;;;3.25;3.00;;;;;23.20;38.91;100557.38;5081531;27;45500;-62
2023/04/24 09:53:03;;;;;;;;;4.25;4.00;;;;;23.23;38.74;100561.59;5073158;27;45472;-62
2023/04/24 09:55:29;;;;;;;;;2.25;2.25;;;;;23.21;39.00;100559.06;5076138;27;45358;-62
2023/04/24 09:58:00;;;;;;;;;3.25;1.75;;;;;23.23;38.99;100557.13;5082279;27;45411;-64
2023/04/24 10:00:30;;;;;;;;;4.00;2.00;;;;;23.21;38.90;100553.72;5079506;27;46213;-69
2023/04/24 10:03:02;;;;;;;;;2.50;2.25;;;;;23.23;39.04;100559.81;5060967;28;45950;-68
2023/04/24 10:05:31;;;;;;;;;3.50;3.25;;;;;23.23;38.69;100550.91;5081403;27;45386;-65
2023/04/24 10:07:58;;;;;;;;;3.75;3.00;;;;;23.24;38.71;100552.63;5077805;27;45615;-68
2023/04/24 10:10:23;;;;;;;;;5.75;3.50;;;;;23.24;38.48;100555.28;5079069;28;46224;-70
2023/04/24 10:12:49;;;;;;;;;6.50;3.00;;;;;23.23;38.28;100556.25;5076895;27;58936;-73
2023/04/24 10:15:17;;;;;;;;;6.00;2.75;;;;;23.23;38.28;100556.25;5080474;27;45448;-71
2023/04/24 10:17:44;;;;;;;;;4.25;2.00;;;;;23.20;38.55;100553.88;5082291;27;45361;-71
2023/04/24 10:20:10;;;;;;;;;3.50;3.00;;;;;23.19;38.56;100553.00;5073513;28;52639;-71
2023/04/24 10:22:36;;;;;;;;;4.25;3.25;;;;;23.21;38.27;100556.38;5076636;28;61182;-69
2023/04/24 10:25:03;;;;;;;;;2.75;2.75;;;;;23.21;38.66;100558.22;5063587;28;45360;-75
2023/04/24 10:27:30;;;;;;;;;2.50;2.50;;;;;23.22;38.21;100551.91;5077182;27;45189;-73
2023/04/24 10:29:56;;;;;;;;;3.25;2.25;;;;;23.20;38.80;100546.69;5080183;27;46281;-72
2023/04/24 10:32:21;;;;;;;;;3.25;3.25;;;;;23.20;38.62;100554.69;5064569;27;60361;-67
2023/04/24 10:34:47;;;;;;;;;2.25;2.25;;;;;23.19;38.17;100558.34;5075958;27;52761;-67
2023/04/24 10:37:13;;;;;;;;;4.00;3.25;;;;;23.20;38.39;100554.69;5086986;27;53846;-67
2023/04/24 10:39:40;;;;;;;;;4.50;3.25;;;;;23.24;38.27;100557.97;5081034;27;46486;-67
2023/04/24 10:42:15;;;;;;;;;4.50;3.50;;;;;23.26;38.54;100559.50;5077940;27;45866;-67
2023/04/24 10:44:41;;;;;;;;;3.50;2.00;;;;;23.26;38.37;100551.50;5077920;28;45406;-73
2023/04/24 10:47:13;;;;;;;;;2.75;2.75;;;;;23.26;38.12;100554.19;5075507;27;72570;-67
2023/04/24 10:49:38;;;;;;;;;4.50;3.00;;;;;23.26;38.20;100556.84;5074011;28;45411;-67
2023/04/24 10:52:06;;;;;;;;;3.75;3.75;;;;;23.27;37.89;100557.72;5077903;27;70133;-66
2023/04/24 10:54:36;;;;;;;;;2.25;2.25;;;;;23.25;37.75;100560.50;5075799;28;45641;-65
2023/04/24 10:57:21;;;;;;;;;3.75;3.00;;;;;23.24;37.86;100561.47;5086618;27;45866;-70
2023/04/24 10:59:48;;;;;;;;;2.50;2.50;;;;;23.20;37.87;100551.19;5094056;27;46933;-68
2023/04/24 11:02:17;;;;;;;;;3.75;3.50;;;;;23.21;37.88;100553.72;5064841;28;45677;-68
2023/04/24 11:04:43;;;;;;;;;4.00;4.00;;;;;23.20;38.28;100545.84;5080055;27;45426;-67
2023/04/24 11:07:09;;;;;;;;;2.50;2.50;;;;;23.20;38.25;100544.03;5078506;27;45515;-67
2023/04/24 11:09:36;;;;;;;;;4.50;3.75;;;;;23.18;38.12;100540.63;5073322;27;45575;-69
2023/04/24 11:12:10;;;;;;;;;5.00;4.75;;;;;23.21;38.24;100551.03;5067341;27;45319;-67
2023/04/24 11:14:59;;;;;;;;;4.00;4.00;;;;;23.20;38.30;100546.69;5079593;27;45562;-70
2023/04/24 11:17:37;;;;;;;;;6.00;3.25;;;;;23.21;38.64;100539.53;5092958;27;45484;-73
2023/04/24 11:20:07;;;;;;;;;4.50;4.00;;;;;23.21;38.87;100544.88;5068166;27;47170;-77
2023/04/24 11:22:35;;;;;;;;;6.25;5.25;;;;;23.21;38.82;100547.53;5076467;28;45786;-73